Погода Эгьу-Мортна 2 недели

Лангедок - Руссильон, Франция

17 - 30 апреля
  • 17апреля
    Сегодня
    +8°
    +19°
    Облачно с прояснениями
    ВремяПогодаТемператураВлажностьДавлениеВетер, м/сВероятность осадков
    02:00Ясно и безоблачно+11°C58 %761 мм6.4 м/с5 %
    05:00Практически безоблачно+10°C60 %760 мм7.1 м/с8 %
    08:00Ясно и безоблачно+11°C61 %761 мм6.5 м/с3 %
    11:00Практически безоблачно+16°C39 %761 мм7.0 м/с2 %
    14:00Облачно с прояснениями+18°C28 %760 мм7.2 м/с4 %
    17:00Небольшая облачность+18°C28 %759 мм8.7 м/с3 %
    20:00Практически безоблачно+16°C34 %759 мм8.6 м/с2 %
    23:00Практически безоблачно+12°C47 %761 мм6.7 м/с3 %
  • 18апреля
    Четверг
    +7°
    +17°
    Небольшая облачность
    ВремяПогодаТемператураВлажностьДавлениеВетер, м/сВероятность осадков
    02:00Небольшая облачность+11°C59 %761 мм5.4 м/с11 %
    05:00Небольшая облачность+10°C63 %760 мм5.6 м/с18 %
    08:00Небольшая облачность+9°C70 %761 мм3.3 м/с9 %
    11:00Практически безоблачно+13°C43 %761 мм5.9 м/с11 %
    14:00Небольшая облачность+14°C45 %761 мм7.5 м/с36 %
    17:00Небольшая облачность+16°C25 %760 мм9.4 м/с27 %
    20:00Ясно и безоблачно+13°C34 %762 мм8.5 м/с7 %
    23:00Ясно и безоблачно+10°C44 %765 мм7.9 м/с2 %
  • 19апреля
    Пятница
    +9°
    +20°
    Ясно и безоблачно
    ВремяПогодаТемператураВлажностьДавлениеВетер, м/сВероятность осадков
    02:00Ясно и безоблачно+9°C49 %766 мм6.5 м/с2 %
    05:00Ясно и безоблачно+8°C54 %765 мм6.6 м/с2 %
    08:00Ясно и безоблачно+8°C58 %766 мм4.4 м/с2 %
    11:00Ясно и безоблачно+14°C37 %766 мм4.9 м/с2 %
    14:00Ясно и безоблачно+19°C29 %764 мм3.0 м/с2 %
    17:00Ясно и безоблачно+18°C35 %762 мм4.2 м/с2 %
    20:00Ясно и безоблачно+17°C42 %761 мм4.0 м/с2 %
    23:00Ясно и безоблачно+12°C55 %762 мм2.8 м/с2 %
  • 20апреля
    Суббота
    +8°
    +18°
    Ясно и безоблачно
    ВремяПогодаТемператураВлажностьДавлениеВетер, м/сВероятность осадков
    02:00Ясно и безоблачно+11°C55 %762 мм4.4 м/с2 %
    05:00Ясно и безоблачно+10°C59 %761 мм5.0 м/с2 %
    08:00Ясно и безоблачно+11°C62 %762 мм5.2 м/с2 %
    11:00Практически безоблачно+15°C41 %763 мм8.8 м/с2 %
    14:00Ясно и безоблачно+18°C25 %763 мм8.9 м/с2 %
    17:00Ясно и безоблачно+17°C26 %762 мм9.1 м/с2 %
    20:00Ясно и безоблачно+14°C36 %763 мм8.9 м/с2 %
    23:00Ясно и безоблачно+11°C45 %765 мм8.4 м/с2 %
  • 21апреля
    Воскресенье
    +5°
    +18°
    Ясно и безоблачно
    ВремяПогодаТемператураВлажностьДавлениеВетер, м/сВероятность осадков
    02:00Ясно и безоблачно+10°C54 %764 мм9.0 м/с2 %
    05:00Ясно и безоблачно+9°C57 %763 мм9.0 м/с2 %
    08:00Ясно и безоблачно+9°C56 %763 мм8.6 м/с2 %
    11:00Ясно и безоблачно+14°C39 %763 мм9.6 м/с2 %
    14:00Ясно и безоблачно+17°C31 %762 мм8.9 м/с2 %
    17:00Ясно и безоблачно+17°C28 %761 мм8.5 м/с2 %
    20:00Ясно и безоблачно+14°C34 %762 мм8.9 м/с2 %
    23:00Ясно и безоблачно+10°C44 %763 мм7.3 м/с2 %
Мы используем cookies
Соглашаюсь